sensor_id;sensor_type;location;lat;lon;timestamp;P1;P2;P0
77515;PMS5003;66627;29.424;-98.496;2023-05-10T00:00:35;24;24;
77515;PMS5003;66627;29.424;-98.496;2023-05-10T00:03:01;28;24;
77515;PMS5003;66627;29.424;-98.496;2023-05-10T00:05:26;34;31;
77515;PMS5003;66627;29.424;-98.496;2023-05-10T00:07:52;24;22;
77515;PMS5003;66627;29.424;-98.496;2023-05-10T00:10:17;29;24;
77515;PMS5003;66627;29.424;-98.496;2023-05-10T00:12:43;32;29;
77515;PMS5003;66627;29.424;-98.496;2023-05-10T00:15:09;31;25;
77515;PMS5003;66627;29.424;-98.496;2023-05-10T00:17:34;27;25;
77515;PMS5003;66627;29.424;-98.496;2023-05-10T00:19:59;26;25;
77515;PMS5003;66627;29.424;-98.496;2023-05-10T00:22:24;29;25;
77515;PMS5003;66627;29.424;-98.496;2023-05-10T00:24:49;30;28;
77515;PMS5003;66627;29.424;-98.496;2023-05-10T00:27:14;31;30;
77515;PMS5003;66627;29.424;-98.496;2023-05-10T00:29:40;28;25;
77515;PMS5003;66627;29.424;-98.496;2023-05-10T00:32:05;31;27;
77515;PMS5003;66627;29.424;-98.496;2023-05-10T00:34:30;31;27;
77515;PMS5003;66627;29.424;-98.496;2023-05-10T00:36:56;33;29;
77515;PMS5003;66627;29.424;-98.496;2023-05-10T00:39:21;51;46;
77515;PMS5003;66627;29.424;-98.496;2023-05-10T00:41:47;77;71;
77515;PMS5003;66627;29.424;-98.496;2023-05-10T00:44:13;77;73;
77515;PMS5003;66627;29.424;-98.496;2023-05-10T00:46:38;31;27;
77515;PMS5003;66627;29.424;-98.496;2023-05-10T00:49:03;23;22;
77515;PMS5003;66627;29.424;-98.496;2023-05-10T00:51:29;23;22;
77515;PMS5003;66627;29.424;-98.496;2023-05-10T00:53:54;24;21;
77515;PMS5003;66627;29.424;-98.496;2023-05-10T00:56:20;27;24;
77515;PMS5003;66627;29.424;-98.496;2023-05-10T00:58:45;24;20;
77515;PMS5003;66627;29.424;-98.496;2023-05-10T01:01:11;23;19;
77515;PMS5003;66627;29.424;-98.496;2023-05-10T01:03:37;24;22;
77515;PMS5003;66627;29.424;-98.496;2023-05-10T01:06:02;27;23;
77515;PMS5003;66627;29.424;-98.496;2023-05-10T01:08:28;20;19;
77515;PMS5003;66627;29.424;-98.496;2023-05-10T01:10:53;23;22;
77515;PMS5003;66627;29.424;-98.496;2023-05-10T01:13:22;23;19;
77515;PMS5003;66627;29.424;-98.496;2023-05-10T01:15:43;19;16;
77515;PMS5003;66627;29.424;-98.496;2023-05-10T01:18:08;18;17;
77515;PMS5003;66627;29.424;-98.496;2023-05-10T01:20:35;19;16;
77515;PMS5003;66627;29.424;-98.496;2023-05-10T01:25:33;20;18;
77515;PMS5003;66627;29.424;-98.496;2023-05-10T01:30:28;46;41;
77515;PMS5003;66627;29.424;-98.496;2023-05-10T01:32:43;34;30;
77515;PMS5003;66627;29.424;-98.496;2023-05-10T01:35:08;31;30;
77515;PMS5003;66627;29.424;-98.496;2023-05-10T01:37:36;33;30;
77515;PMS5003;66627;29.424;-98.496;2023-05-10T01:40:00;29;28;
77515;PMS5003;66627;29.424;-98.496;2023-05-10T01:42:25;32;28;
77515;PMS5003;66627;29.424;-98.496;2023-05-10T01:45:00;30;29;
77515;PMS5003;66627;29.424;-98.496;2023-05-10T01:47:15;26;23;
77515;PMS5003;66627;29.424;-98.496;2023-05-10T01:49:41;27;27;
77515;PMS5003;66627;29.424;-98.496;2023-05-10T01:52:06;35;30;
77515;PMS5003;66627;29.424;-98.496;2023-05-10T01:54:31;28;27;
77515;PMS5003;66627;29.424;-98.496;2023-05-10T01:56:55;23;22;
77515;PMS5003;66627;29.424;-98.496;2023-05-10T01:59:21;24;23;
77515;PMS5003;66627;29.424;-98.496;2023-05-10T02:01:46;21;19;
77515;PMS5003;66627;29.424;-98.496;2023-05-10T02:04:11;24;23;
77515;PMS5003;66627;29.424;-98.496;2023-05-10T02:06:36;26;23;
77515;PMS5003;66627;29.424;-98.496;2023-05-10T02:09:01;26;22;
77515;PMS5003;66627;29.424;-98.496;2023-05-10T02:11:27;20;20;
77515;PMS5003;66627;29.424;-98.496;2023-05-10T02:13:53;27;24;
77515;PMS5003;66627;29.424;-98.496;2023-05-10T02:16:17;21;21;
77515;PMS5003;66627;29.424;-98.496;2023-05-10T02:18:44;21;19;
77515;PMS5003;66627;29.424;-98.496;2023-05-10T02:21:09;21;18;
77515;PMS5003;66627;29.424;-98.496;2023-05-10T02:23:34;20;20;
77515;PMS5003;66627;29.424;-98.496;2023-05-10T02:25:59;21;18;
77515;PMS5003;66627;29.424;-98.496;2023-05-10T02:28:25;18;17;
77515;PMS5003;66627;29.424;-98.496;2023-05-10T02:30:50;20;18;
77515;PMS5003;66627;29.424;-98.496;2023-05-10T02:33:16;22;22;
77515;PMS5003;66627;29.424;-98.496;2023-05-10T02:35:41;21;18;
77515;PMS5003;66627;29.424;-98.496;2023-05-10T02:38:07;19;18;
77515;PMS5003;66627;29.424;-98.496;2023-05-10T02:40:32;18;17;
77515;PMS5003;66627;29.424;-98.496;2023-05-10T02:42:58;19;17;
77515;PMS5003;66627;29.424;-98.496;2023-05-10T02:45:28;13;13;
77515;PMS5003;66627;29.424;-98.496;2023-05-10T02:47:49;18;18;
77515;PMS5003;66627;29.424;-98.496;2023-05-10T02:50:14;13;13;
77515;PMS5003;66627;29.424;-98.496;2023-05-10T02:52:40;19;19;
77515;PMS5003;66627;29.424;-98.496;2023-05-10T02:55:05;17;17;
77515;PMS5003;66627;29.424;-98.496;2023-05-10T02:57:31;18;18;
77515;PMS5003;66627;29.424;-98.496;2023-05-10T02:59:56;19;19;
77515;PMS5003;66627;29.424;-98.496;2023-05-10T03:02:22;21;17;
77515;PMS5003;66627;29.424;-98.496;2023-05-10T03:04:47;16;15;
77515;PMS5003;66627;29.424;-98.496;2023-05-10T03:07:12;22;19;
77515;PMS5003;66627;29.424;-98.496;2023-05-10T03:09:38;23;16;
77515;PMS5003;66627;29.424;-98.496;2023-05-10T03:12:05;22;20;
77515;PMS5003;66627;29.424;-98.496;2023-05-10T03:14:34;23;20;
77515;PMS5003;66627;29.424;-98.496;2023-05-10T03:16:56;17;16;
77515;PMS5003;66627;29.424;-98.496;2023-05-10T03:19:24;20;17;
77515;PMS5003;66627;29.424;-98.496;2023-05-10T03:21:47;28;20;
77515;PMS5003;66627;29.424;-98.496;2023-05-10T03:24:11;23;20;
77515;PMS5003;66627;29.424;-98.496;2023-05-10T03:26:36;19;18;
77515;PMS5003;66627;29.424;-98.496;2023-05-10T03:29:02;21;18;
77515;PMS5003;66627;29.424;-98.496;2023-05-10T03:31:27;29;25;
77515;PMS5003;66627;29.424;-98.496;2023-05-10T03:33:53;26;23;
77515;PMS5003;66627;29.424;-98.496;2023-05-10T03:36:18;27;23;
77515;PMS5003;66627;29.424;-98.496;2023-05-10T03:38:43;24;22;
77515;PMS5003;66627;29.424;-98.496;2023-05-10T03:41:13;33;30;
77515;PMS5003;66627;29.424;-98.496;2023-05-10T03:43:34;27;26;
77515;PMS5003;66627;29.424;-98.496;2023-05-10T03:46:01;22;21;
77515;PMS5003;66627;29.424;-98.496;2023-05-10T03:48:25;23;21;
77515;PMS5003;66627;29.424;-98.496;2023-05-10T03:50:50;22;22;
77515;PMS5003;66627;29.424;-98.496;2023-05-10T03:53:16;21;21;
77515;PMS5003;66627;29.424;-98.496;2023-05-10T03:55:41;29;26;
77515;PMS5003;66627;29.424;-98.496;2023-05-10T03:58:11;28;28;
77515;PMS5003;66627;29.424;-98.496;2023-05-10T04:00:32;29;27;
77515;PMS5003;66627;29.424;-98.496;2023-05-10T04:02:57;41;33;
77515;PMS5003;66627;29.424;-98.496;2023-05-10T04:05:23;34;34;
77515;PMS5003;66627;29.424;-98.496;2023-05-10T04:07:48;33;30;
77515;PMS5003;66627;29.424;-98.496;2023-05-10T04:10:14;35;29;
77515;PMS5003;66627;29.424;-98.496;2023-05-10T04:12:39;40;32;
77515;PMS5003;66627;29.424;-98.496;2023-05-10T04:15:05;29;26;
77515;PMS5003;66627;29.424;-98.496;2023-05-10T04:17:31;32;30;
77515;PMS5003;66627;29.424;-98.496;2023-05-10T04:19:56;29;27;
77515;PMS5003;66627;29.424;-98.496;2023-05-10T04:22:21;34;29;
77515;PMS5003;66627;29.424;-98.496;2023-05-10T04:24:47;33;29;
77515;PMS5003;66627;29.424;-98.496;2023-05-10T04:27:11;32;31;
77515;PMS5003;66627;29.424;-98.496;2023-05-10T04:29:37;39;36;
77515;PMS5003;66627;29.424;-98.496;2023-05-10T04:32:03;36;32;
77515;PMS5003;66627;29.424;-98.496;2023-05-10T04:34:28;38;35;
77515;PMS5003;66627;29.424;-98.496;2023-05-10T04:36:54;36;30;
77515;PMS5003;66627;29.424;-98.496;2023-05-10T04:39:25;38;34;
77515;PMS5003;66627;29.424;-98.496;2023-05-10T04:41:45;35;31;
77515;PMS5003;66627;29.424;-98.496;2023-05-10T04:44:10;27;26;
77515;PMS5003;66627;29.424;-98.496;2023-05-10T04:46:41;28;25;
77515;PMS5003;66627;29.424;-98.496;2023-05-10T04:49:01;30;30;
77515;PMS5003;66627;29.424;-98.496;2023-05-10T04:51:32;27;26;
77515;PMS5003;66627;29.424;-98.496;2023-05-10T04:53:53;27;24;
77515;PMS5003;66627;29.424;-98.496;2023-05-10T04:56:18;28;25;
77515;PMS5003;66627;29.424;-98.496;2023-05-10T04:58:43;29;23;
77515;PMS5003;66627;29.424;-98.496;2023-05-10T05:01:08;30;28;
77515;PMS5003;66627;29.424;-98.496;2023-05-10T05:03:34;29;26;
77515;PMS5003;66627;29.424;-98.496;2023-05-10T05:06:00;24;23;
77515;PMS5003;66627;29.424;-98.496;2023-05-10T05:08:25;30;26;
77515;PMS5003;66627;29.424;-98.496;2023-05-10T05:10:51;27;24;
77515;PMS5003;66627;29.424;-98.496;2023-05-10T05:13:17;24;24;
77515;PMS5003;66627;29.424;-98.496;2023-05-10T05:15:42;30;25;
77515;PMS5003;66627;29.424;-98.496;2023-05-10T05:18:07;27;26;
77515;PMS5003;66627;29.424;-98.496;2023-05-10T05:20:32;36;31;
77515;PMS5003;66627;29.424;-98.496;2023-05-10T05:22:58;28;26;
77515;PMS5003;66627;29.424;-98.496;2023-05-10T05:25:23;28;25;
77515;PMS5003;66627;29.424;-98.496;2023-05-10T05:27:49;29;24;
77515;PMS5003;66627;29.424;-98.496;2023-05-10T05:30:14;23;21;
77515;PMS5003;66627;29.424;-98.496;2023-05-10T05:32:39;22;21;
77515;PMS5003;66627;29.424;-98.496;2023-05-10T05:35:05;20;19;
77515;PMS5003;66627;29.424;-98.496;2023-05-10T05:37:30;24;18;
77515;PMS5003;66627;29.424;-98.496;2023-05-10T05:39:55;22;19;
77515;PMS5003;66627;29.424;-98.496;2023-05-10T05:42:21;20;17;
77515;PMS5003;66627;29.424;-98.496;2023-05-10T05:44:47;20;20;
77515;PMS5003;66627;29.424;-98.496;2023-05-10T05:47:12;21;19;
77515;PMS5003;66627;29.424;-98.496;2023-05-10T05:49:38;16;15;
77515;PMS5003;66627;29.424;-98.496;2023-05-10T05:52:04;20;19;
77515;PMS5003;66627;29.424;-98.496;2023-05-10T05:54:28;18;18;
77515;PMS5003;66627;29.424;-98.496;2023-05-10T05:56:54;16;16;
77515;PMS5003;66627;29.424;-98.496;2023-05-10T05:59:20;23;22;
77515;PMS5003;66627;29.424;-98.496;2023-05-10T06:01:45;19;17;
77515;PMS5003;66627;29.424;-98.496;2023-05-10T06:04:10;13;13;
77515;PMS5003;66627;29.424;-98.496;2023-05-10T06:06:41;13;13;
77515;PMS5003;66627;29.424;-98.496;2023-05-10T06:09:01;18;18;
77515;PMS5003;66627;29.424;-98.496;2023-05-10T06:11:27;25;22;
77515;PMS5003;66627;29.424;-98.496;2023-05-10T06:13:52;20;18;
77515;PMS5003;66627;29.424;-98.496;2023-05-10T06:16:18;20;18;
77515;PMS5003;66627;29.424;-98.496;2023-05-10T06:18:43;20;18;
77515;PMS5003;66627;29.424;-98.496;2023-05-10T06:21:13;19;16;
77515;PMS5003;66627;29.424;-98.496;2023-05-10T06:23:34;20;19;
77515;PMS5003;66627;29.424;-98.496;2023-05-10T06:25:59;16;16;
77515;PMS5003;66627;29.424;-98.496;2023-05-10T06:28:25;18;18;
77515;PMS5003;66627;29.424;-98.496;2023-05-10T06:30:50;26;23;
77515;PMS5003;66627;29.424;-98.496;2023-05-10T06:33:16;25;25;
77515;PMS5003;66627;29.424;-98.496;2023-05-10T06:35:41;30;28;
77515;PMS5003;66627;29.424;-98.496;2023-05-10T06:38:07;23;22;
77515;PMS5003;66627;29.424;-98.496;2023-05-10T06:40:32;29;24;
77515;PMS5003;66627;29.424;-98.496;2023-05-10T06:42:58;29;23;
77515;PMS5003;66627;29.424;-98.496;2023-05-10T06:45:23;26;25;
77515;PMS5003;66627;29.424;-98.496;2023-05-10T06:47:49;27;23;
77515;PMS5003;66627;29.424;-98.496;2023-05-10T06:50:14;23;21;
77515;PMS5003;66627;29.424;-98.496;2023-05-10T06:52:39;25;25;
77515;PMS5003;66627;29.424;-98.496;2023-05-10T06:55:05;23;22;
77515;PMS5003;66627;29.424;-98.496;2023-05-10T06:57:30;29;26;
77515;PMS5003;66627;29.424;-98.496;2023-05-10T06:59:56;16;14;
77515;PMS5003;66627;29.424;-98.496;2023-05-10T07:02:21;18;17;
77515;PMS5003;66627;29.424;-98.496;2023-05-10T07:04:47;22;21;
77515;PMS5003;66627;29.424;-98.496;2023-05-10T07:07:12;33;25;
77515;PMS5003;66627;29.424;-98.496;2023-05-10T07:09:37;24;22;
77515;PMS5003;66627;29.424;-98.496;2023-05-10T07:12:03;20;20;
77515;PMS5003;66627;29.424;-98.496;2023-05-10T07:14:28;24;21;
77515;PMS5003;66627;29.424;-98.496;2023-05-10T07:16:58;22;20;
77515;PMS5003;66627;29.424;-98.496;2023-05-10T07:19:19;25;23;
77515;PMS5003;66627;29.424;-98.496;2023-05-10T07:21:44;28;23;
77515;PMS5003;66627;29.424;-98.496;2023-05-10T07:24:09;20;20;
77515;PMS5003;66627;29.424;-98.496;2023-05-10T07:26:35;22;19;
77515;PMS5003;66627;29.424;-98.496;2023-05-10T07:29:00;24;24;
77515;PMS5003;66627;29.424;-98.496;2023-05-10T07:31:25;22;21;
77515;PMS5003;66627;29.424;-98.496;2023-05-10T07:33:51;32;28;
77515;PMS5003;66627;29.424;-98.496;2023-05-10T07:36:21;25;22;
77515;PMS5003;66627;29.424;-98.496;2023-05-10T07:38:42;35;26;
77515;PMS5003;66627;29.424;-98.496;2023-05-10T07:41:08;27;25;
77515;PMS5003;66627;29.424;-98.496;2023-05-10T07:43:33;27;22;
77515;PMS5003;66627;29.424;-98.496;2023-05-10T07:45:59;19;19;
77515;PMS5003;66627;29.424;-98.496;2023-05-10T07:48:24;26;20;
77515;PMS5003;66627;29.424;-98.496;2023-05-10T07:50:50;20;17;
77515;PMS5003;66627;29.424;-98.496;2023-05-10T07:53:15;19;19;
77515;PMS5003;66627;29.424;-98.496;2023-05-10T07:55:41;28;25;
77515;PMS5003;66627;29.424;-98.496;2023-05-10T07:58:06;24;21;
77515;PMS5003;66627;29.424;-98.496;2023-05-10T08:00:32;26;24;
77515;PMS5003;66627;29.424;-98.496;2023-05-10T08:02:57;23;22;
77515;PMS5003;66627;29.424;-98.496;2023-05-10T08:05:23;27;25;
77515;PMS5003;66627;29.424;-98.496;2023-05-10T08:07:48;24;24;
77515;PMS5003;66627;29.424;-98.496;2023-05-10T08:10:13;23;18;
77515;PMS5003;66627;29.424;-98.496;2023-05-10T08:12:39;22;22;
77515;PMS5003;66627;29.424;-98.496;2023-05-10T08:15:04;25;20;
77515;PMS5003;66627;29.424;-98.496;2023-05-10T08:17:30;26;25;
77515;PMS5003;66627;29.424;-98.496;2023-05-10T08:19:55;21;21;
77515;PMS5003;66627;29.424;-98.496;2023-05-10T08:22:21;28;24;
77515;PMS5003;66627;29.424;-98.496;2023-05-10T08:24:46;24;23;
77515;PMS5003;66627;29.424;-98.496;2023-05-10T08:27:12;21;19;
77515;PMS5003;66627;29.424;-98.496;2023-05-10T08:29:37;20;20;
77515;PMS5003;66627;29.424;-98.496;2023-05-10T08:32:02;24;24;
77515;PMS5003;66627;29.424;-98.496;2023-05-10T08:34:28;27;22;
77515;PMS5003;66627;29.424;-98.496;2023-05-10T08:36:54;18;15;
77515;PMS5003;66627;29.424;-98.496;2023-05-10T08:39:19;18;15;
77515;PMS5003;66627;29.424;-98.496;2023-05-10T08:41:44;19;18;
77515;PMS5003;66627;29.424;-98.496;2023-05-10T08:44:10;20;17;
77515;PMS5003;66627;29.424;-98.496;2023-05-10T08:46:36;20;19;
77515;PMS5003;66627;29.424;-98.496;2023-05-10T08:49:01;23;21;
77515;PMS5003;66627;29.424;-98.496;2023-05-10T08:51:26;21;21;
77515;PMS5003;66627;29.424;-98.496;2023-05-10T08:53:52;22;22;
77515;PMS5003;66627;29.424;-98.496;2023-05-10T08:56:17;19;18;
77515;PMS5003;66627;29.424;-98.496;2023-05-10T08:58:43;17;16;
77515;PMS5003;66627;29.424;-98.496;2023-05-10T09:01:08;16;16;
77515;PMS5003;66627;29.424;-98.496;2023-05-10T09:03:38;17;17;
77515;PMS5003;66627;29.424;-98.496;2023-05-10T09:05:59;19;18;
77515;PMS5003;66627;29.424;-98.496;2023-05-10T09:08:24;23;22;
77515;PMS5003;66627;29.424;-98.496;2023-05-10T09:10:50;18;17;
77515;PMS5003;66627;29.424;-98.496;2023-05-10T09:13:15;18;17;
77515;PMS5003;66627;29.424;-98.496;2023-05-10T09:15:41;17;16;
77515;PMS5003;66627;29.424;-98.496;2023-05-10T09:18:06;19;17;
77515;PMS5003;66627;29.424;-98.496;2023-05-10T09:20:32;19;19;
77515;PMS5003;66627;29.424;-98.496;2023-05-10T09:22:57;18;18;
77515;PMS5003;66627;29.424;-98.496;2023-05-10T09:25:22;23;22;
77515;PMS5003;66627;29.424;-98.496;2023-05-10T09:27:48;19;17;
77515;PMS5003;66627;29.424;-98.496;2023-05-10T09:30:15;25;19;
77515;PMS5003;66627;29.424;-98.496;2023-05-10T09:32:39;16;15;
77515;PMS5003;66627;29.424;-98.496;2023-05-10T09:35:07;13;13;
77515;PMS5003;66627;29.424;-98.496;2023-05-10T09:37:29;17;16;
77515;PMS5003;66627;29.424;-98.496;2023-05-10T09:39:54;16;12;
77515;PMS5003;66627;29.424;-98.496;2023-05-10T09:42:20;20;19;
77515;PMS5003;66627;29.424;-98.496;2023-05-10T09:44:45;22;21;
77515;PMS5003;66627;29.424;-98.496;2023-05-10T09:47:11;18;18;
77515;PMS5003;66627;29.424;-98.496;2023-05-10T09:49:36;15;15;
77515;PMS5003;66627;29.424;-98.496;2023-05-10T09:52:02;16;13;
77515;PMS5003;66627;29.424;-98.496;2023-05-10T09:54:32;17;16;
77515;PMS5003;66627;29.424;-98.496;2023-05-10T09:56:53;15;15;
77515;PMS5003;66627;29.424;-98.496;2023-05-10T09:59:18;15;15;
77515;PMS5003;66627;29.424;-98.496;2023-05-10T10:01:44;13;13;
77515;PMS5003;66627;29.424;-98.496;2023-05-10T10:04:09;16;16;
77515;PMS5003;66627;29.424;-98.496;2023-05-10T10:06:36;19;17;
77515;PMS5003;66627;29.424;-98.496;2023-05-10T10:09:00;17;16;
77515;PMS5003;66627;29.424;-98.496;2023-05-10T10:11:25;13;13;
77515;PMS5003;66627;29.424;-98.496;2023-05-10T10:13:50;17;15;
77515;PMS5003;66627;29.424;-98.496;2023-05-10T10:16:16;20;14;
77515;PMS5003;66627;29.424;-98.496;2023-05-10T10:18:41;20;17;
77515;PMS5003;66627;29.424;-98.496;2023-05-10T10:21:06;19;18;
77515;PMS5003;66627;29.424;-98.496;2023-05-10T10:23:32;17;15;
77515;PMS5003;66627;29.424;-98.496;2023-05-10T10:26:02;17;16;
77515;PMS5003;66627;29.424;-98.496;2023-05-10T10:28:30;14;14;
77515;PMS5003;66627;29.424;-98.496;2023-05-10T10:30:48;16;15;
77515;PMS5003;66627;29.424;-98.496;2023-05-10T10:33:18;17;15;
77515;PMS5003;66627;29.424;-98.496;2023-05-10T10:35:39;19;18;
77515;PMS5003;66627;29.424;-98.496;2023-05-10T10:38:04;20;17;
77515;PMS5003;66627;29.424;-98.496;2023-05-10T10:40:29;20;16;
77515;PMS5003;66627;29.424;-98.496;2023-05-10T10:42:55;18;18;
77515;PMS5003;66627;29.424;-98.496;2023-05-10T10:45:25;23;19;
77515;PMS5003;66627;29.424;-98.496;2023-05-10T10:47:46;16;15;
77515;PMS5003;66627;29.424;-98.496;2023-05-10T10:50:11;22;17;
77515;PMS5003;66627;29.424;-98.496;2023-05-10T10:52:37;15;15;
77515;PMS5003;66627;29.424;-98.496;2023-05-10T10:55:03;13;12;
77515;PMS5003;66627;29.424;-98.496;2023-05-10T10:57:28;20;17;
77515;PMS5003;66627;29.424;-98.496;2023-05-10T11:04:44;25;20;
77515;PMS5003;66627;29.424;-98.496;2023-05-10T11:07:16;19;17;
77515;PMS5003;66627;29.424;-98.496;2023-05-10T11:09:39;20;19;
77515;PMS5003;66627;29.424;-98.496;2023-05-10T11:12:07;17;16;
77515;PMS5003;66627;29.424;-98.496;2023-05-10T11:14:27;17;15;
77515;PMS5003;66627;29.424;-98.496;2023-05-10T11:16:52;19;18;
77515;PMS5003;66627;29.424;-98.496;2023-05-10T11:19:18;16;15;
77515;PMS5003;66627;29.424;-98.496;2023-05-10T11:21:46;23;21;
77515;PMS5003;66627;29.424;-98.496;2023-05-10T11:24:13;18;17;
77515;PMS5003;66627;29.424;-98.496;2023-05-10T11:26:34;17;14;
77515;PMS5003;66627;29.424;-98.496;2023-05-10T11:28:59;25;20;
77515;PMS5003;66627;29.424;-98.496;2023-05-10T11:31:24;16;16;
77515;PMS5003;66627;29.424;-98.496;2023-05-10T11:33:50;19;18;
77515;PMS5003;66627;29.424;-98.496;2023-05-10T11:36:21;17;16;
77515;PMS5003;66627;29.424;-98.496;2023-05-10T11:38:41;16;14;
77515;PMS5003;66627;29.424;-98.496;2023-05-10T11:41:08;18;18;
77515;PMS5003;66627;29.424;-98.496;2023-05-10T11:43:32;17;15;
77515;PMS5003;66627;29.424;-98.496;2023-05-10T11:45:58;14;14;
77515;PMS5003;66627;29.424;-98.496;2023-05-10T11:48:23;17;14;
77515;PMS5003;66627;29.424;-98.496;2023-05-10T11:50:49;17;17;
77515;PMS5003;66627;29.424;-98.496;2023-05-10T11:53:14;16;16;
77515;PMS5003;66627;29.424;-98.496;2023-05-10T11:55:39;18;16;
77515;PMS5003;66627;29.424;-98.496;2023-05-10T11:58:04;18;18;
77515;PMS5003;66627;29.424;-98.496;2023-05-10T12:00:30;25;16;
77515;PMS5003;66627;29.424;-98.496;2023-05-10T12:03:00;21;19;
77515;PMS5003;66627;29.424;-98.496;2023-05-10T12:05:21;20;18;
77515;PMS5003;66627;29.424;-98.496;2023-05-10T12:07:46;20;20;
77515;PMS5003;66627;29.424;-98.496;2023-05-10T12:10:12;22;20;
77515;PMS5003;66627;29.424;-98.496;2023-05-10T12:12:37;22;22;
77515;PMS5003;66627;29.424;-98.496;2023-05-10T12:15:02;23;18;
77515;PMS5003;66627;29.424;-98.496;2023-05-10T12:17:27;24;21;
77515;PMS5003;66627;29.424;-98.496;2023-05-10T12:19:53;25;22;
77515;PMS5003;66627;29.424;-98.496;2023-05-10T12:22:20;25;23;
77515;PMS5003;66627;29.424;-98.496;2023-05-10T12:24:44;29;25;
77515;PMS5003;66627;29.424;-98.496;2023-05-10T12:27:09;22;22;
77515;PMS5003;66627;29.424;-98.496;2023-05-10T12:29:34;23;21;
77515;PMS5003;66627;29.424;-98.496;2023-05-10T12:32:00;30;23;
77515;PMS5003;66627;29.424;-98.496;2023-05-10T12:34:26;22;22;
77515;PMS5003;66627;29.424;-98.496;2023-05-10T12:36:51;22;20;
77515;PMS5003;66627;29.424;-98.496;2023-05-10T12:39:16;16;14;
77515;PMS5003;66627;29.424;-98.496;2023-05-10T12:41:41;20;17;
77515;PMS5003;66627;29.424;-98.496;2023-05-10T12:44:07;18;15;
77515;PMS5003;66627;29.424;-98.496;2023-05-10T12:46:32;18;15;
77515;PMS5003;66627;29.424;-98.496;2023-05-10T12:48:58;16;16;
77515;PMS5003;66627;29.424;-98.496;2023-05-10T12:51:23;17;14;
77515;PMS5003;66627;29.424;-98.496;2023-05-10T12:53:49;12;10;
77515;PMS5003;66627;29.424;-98.496;2023-05-10T12:56:13;12;11;
77515;PMS5003;66627;29.424;-98.496;2023-05-10T12:58:39;12;12;
77515;PMS5003;66627;29.424;-98.496;2023-05-10T13:01:04;14;14;
77515;PMS5003;66627;29.424;-98.496;2023-05-10T13:03:30;14;14;
77515;PMS5003;66627;29.424;-98.496;2023-05-10T13:05:56;17;14;
77515;PMS5003;66627;29.424;-98.496;2023-05-10T13:08:22;19;16;
77515;PMS5003;66627;29.424;-98.496;2023-05-10T13:10:47;10;10;
77515;PMS5003;66627;29.424;-98.496;2023-05-10T13:13:12;17;13;
77515;PMS5003;66627;29.424;-98.496;2023-05-10T13:15:37;16;16;
77515;PMS5003;66627;29.424;-98.496;2023-05-10T13:18:03;22;15;
77515;PMS5003;66627;29.424;-98.496;2023-05-10T13:20:28;18;15;
77515;PMS5003;66627;29.424;-98.496;2023-05-10T13:22:54;15;15;
77515;PMS5003;66627;29.424;-98.496;2023-05-10T13:25:19;15;15;
77515;PMS5003;66627;29.424;-98.496;2023-05-10T13:27:44;10;9;
77515;PMS5003;66627;29.424;-98.496;2023-05-10T13:30:10;18;17;
77515;PMS5003;66627;29.424;-98.496;2023-05-10T13:32:40;19;18;
77515;PMS5003;66627;29.424;-98.496;2023-05-10T13:35:00;18;17;
77515;PMS5003;66627;29.424;-98.496;2023-05-10T13:37:25;22;17;
77515;PMS5003;66627;29.424;-98.496;2023-05-10T13:39:51;17;17;
77515;PMS5003;66627;29.424;-98.496;2023-05-10T13:42:17;20;18;
77515;PMS5003;66627;29.424;-98.496;2023-05-10T13:44:42;24;19;
77515;PMS5003;66627;29.424;-98.496;2023-05-10T13:47:08;19;17;
77515;PMS5003;66627;29.424;-98.496;2023-05-10T13:49:34;19;18;
77515;PMS5003;66627;29.424;-98.496;2023-05-10T13:51:58;19;16;
77515;PMS5003;66627;29.424;-98.496;2023-05-10T13:54:24;15;15;
77515;PMS5003;66627;29.424;-98.496;2023-05-10T13:56:49;17;17;
77515;PMS5003;66627;29.424;-98.496;2023-05-10T13:59:14;18;15;
77515;PMS5003;66627;29.424;-98.496;2023-05-10T14:01:39;13;13;
77515;PMS5003;66627;29.424;-98.496;2023-05-10T14:04:05;12;12;
77515;PMS5003;66627;29.424;-98.496;2023-05-10T14:06:30;16;14;
77515;PMS5003;66627;29.424;-98.496;2023-05-10T14:08:56;13;13;
77515;PMS5003;66627;29.424;-98.496;2023-05-10T14:11:21;12;12;
77515;PMS5003;66627;29.424;-98.496;2023-05-10T14:13:46;9;9;
77515;PMS5003;66627;29.424;-98.496;2023-05-10T14:16:11;7;7;
77515;PMS5003;66627;29.424;-98.496;2023-05-10T14:18:36;8;8;
77515;PMS5003;66627;29.424;-98.496;2023-05-10T14:21:02;6;5;
77515;PMS5003;66627;29.424;-98.496;2023-05-10T14:23:26;13;11;
77515;PMS5003;66627;29.424;-98.496;2023-05-10T14:25:52;9;9;
77515;PMS5003;66627;29.424;-98.496;2023-05-10T14:28:17;10;8;
77515;PMS5003;66627;29.424;-98.496;2023-05-10T14:30:42;9;7;
77515;PMS5003;66627;29.424;-98.496;2023-05-10T14:33:07;9;8;
77515;PMS5003;66627;29.424;-98.496;2023-05-10T14:35:33;11;9;
77515;PMS5003;66627;29.424;-98.496;2023-05-10T14:37:58;12;9;
77515;PMS5003;66627;29.424;-98.496;2023-05-10T14:40:29;10;8;
77515;PMS5003;66627;29.424;-98.496;2023-05-10T14:42:49;6;6;
77515;PMS5003;66627;29.424;-98.496;2023-05-10T14:45:17;7;6;
77515;PMS5003;66627;29.424;-98.496;2023-05-10T14:47:40;5;5;
77515;PMS5003;66627;29.424;-98.496;2023-05-10T14:50:05;8;8;
77515;PMS5003;66627;29.424;-98.496;2023-05-10T14:52:30;7;5;
77515;PMS5003;66627;29.424;-98.496;2023-05-10T14:54:55;9;7;
77515;PMS5003;66627;29.424;-98.496;2023-05-10T14:57:25;9;9;
77515;PMS5003;66627;29.424;-98.496;2023-05-10T14:59:46;9;9;
77515;PMS5003;66627;29.424;-98.496;2023-05-10T15:02:12;10;9;
77515;PMS5003;66627;29.424;-98.496;2023-05-10T15:04:37;8;7;
77515;PMS5003;66627;29.424;-98.496;2023-05-10T15:07:02;9;9;
77515;PMS5003;66627;29.424;-98.496;2023-05-10T15:09:27;8;8;
77515;PMS5003;66627;29.424;-98.496;2023-05-10T15:11:53;8;8;
77515;PMS5003;66627;29.424;-98.496;2023-05-10T15:14:19;9;9;
77515;PMS5003;66627;29.424;-98.496;2023-05-10T15:16:44;8;8;
77515;PMS5003;66627;29.424;-98.496;2023-05-10T15:19:09;14;14;
77515;PMS5003;66627;29.424;-98.496;2023-05-10T15:21:35;9;9;
77515;PMS5003;66627;29.424;-98.496;2023-05-10T15:24:00;14;13;
77515;PMS5003;66627;29.424;-98.496;2023-05-10T15:26:25;9;9;
77515;PMS5003;66627;29.424;-98.496;2023-05-10T15:28:50;10;8;
77515;PMS5003;66627;29.424;-98.496;2023-05-10T15:31:16;9;9;
77515;PMS5003;66627;29.424;-98.496;2023-05-10T15:33:41;9;9;
77515;PMS5003;66627;29.424;-98.496;2023-05-10T15:36:06;9;9;
77515;PMS5003;66627;29.424;-98.496;2023-05-10T15:38:31;13;13;
77515;PMS5003;66627;29.424;-98.496;2023-05-10T15:40:56;18;15;
77515;PMS5003;66627;29.424;-98.496;2023-05-10T15:43:22;14;14;
77515;PMS5003;66627;29.424;-98.496;2023-05-10T15:45:48;17;15;